sensor_id;sensor_type;location;lat;lon;timestamp;P1;durP1;ratioP1;P2;durP2;ratioP2
39788;SDS011;25478;42.626;23.320;2023-02-28T00:00:23;20.73;;;11.70;;
39788;SDS011;25478;42.626;23.320;2023-02-28T00:02:49;19.37;;;10.37;;
39788;SDS011;25478;42.626;23.320;2023-02-28T00:05:16;16.97;;;9.63;;
39788;SDS011;25478;42.626;23.320;2023-02-28T00:07:43;19.23;;;9.83;;
39788;SDS011;25478;42.626;23.320;2023-02-28T00:10:09;18.03;;;9.17;;
39788;SDS011;25478;42.626;23.320;2023-02-28T00:12:38;18.93;;;9.30;;
39788;SDS011;25478;42.626;23.320;2023-02-28T00:15:07;20.17;;;9.87;;
39788;SDS011;25478;42.626;23.320;2023-02-28T00:17:35;15.47;;;9.00;;
39788;SDS011;25478;42.626;23.320;2023-02-28T00:20:01;17.93;;;9.30;;
39788;SDS011;25478;42.626;23.320;2023-02-28T00:22:26;16.20;;;9.03;;
39788;SDS011;25478;42.626;23.320;2023-02-28T00:24:52;17.57;;;9.53;;
39788;SDS011;25478;42.626;23.320;2023-02-28T00:27:17;16.93;;;9.57;;
39788;SDS011;25478;42.626;23.320;2023-02-28T00:29:46;20.33;;;10.80;;
39788;SDS011;25478;42.626;23.320;2023-02-28T00:32:11;24.93;;;13.33;;
39788;SDS011;25478;42.626;23.320;2023-02-28T00:34:37;27.80;;;15.63;;
39788;SDS011;25478;42.626;23.320;2023-02-28T00:37:03;34.73;;;17.13;;
39788;SDS011;25478;42.626;23.320;2023-02-28T00:39:33;25.33;;;14.43;;
39788;SDS011;25478;42.626;23.320;2023-02-28T00:42:00;30.13;;;15.43;;
39788;SDS011;25478;42.626;23.320;2023-02-28T00:44:25;31.00;;;16.83;;
39788;SDS011;25478;42.626;23.320;2023-02-28T00:46:51;31.10;;;16.00;;
39788;SDS011;25478;42.626;23.320;2023-02-28T00:49:23;27.83;;;15.07;;
39788;SDS011;25478;42.626;23.320;2023-02-28T00:51:49;28.10;;;15.30;;
39788;SDS011;25478;42.626;23.320;2023-02-28T00:54:15;27.50;;;13.70;;
39788;SDS011;25478;42.626;23.320;2023-02-28T00:56:46;23.07;;;12.60;;
39788;SDS011;25478;42.626;23.320;2023-02-28T00:59:12;19.37;;;10.53;;
39788;SDS011;25478;42.626;23.320;2023-02-28T01:01:38;16.67;;;9.23;;
39788;SDS011;25478;42.626;23.320;2023-02-28T01:04:04;18.70;;;9.40;;
39788;SDS011;25478;42.626;23.320;2023-02-28T01:06:30;24.67;;;12.90;;
39788;SDS011;25478;42.626;23.320;2023-02-28T01:08:57;24.47;;;12.47;;
39788;SDS011;25478;42.626;23.320;2023-02-28T01:11:23;29.93;;;15.73;;
39788;SDS011;25478;42.626;23.320;2023-02-28T01:13:48;25.07;;;14.10;;
39788;SDS011;25478;42.626;23.320;2023-02-28T01:16:14;27.33;;;14.50;;
39788;SDS011;25478;42.626;23.320;2023-02-28T01:18:39;30.17;;;15.73;;
39788;SDS011;25478;42.626;23.320;2023-02-28T01:21:05;33.63;;;16.67;;
39788;SDS011;25478;42.626;23.320;2023-02-28T01:23:32;31.17;;;16.47;;
39788;SDS011;25478;42.626;23.320;2023-02-28T01:26:03;36.30;;;17.53;;
39788;SDS011;25478;42.626;23.320;2023-02-28T01:28:31;39.00;;;18.67;;
39788;SDS011;25478;42.626;23.320;2023-02-28T01:30:56;50.67;;;22.10;;
39788;SDS011;25478;42.626;23.320;2023-02-28T01:33:22;45.00;;;19.80;;
39788;SDS011;25478;42.626;23.320;2023-02-28T01:35:47;44.90;;;21.33;;
39788;SDS011;25478;42.626;23.320;2023-02-28T01:38:13;45.10;;;22.10;;
39788;SDS011;25478;42.626;23.320;2023-02-28T01:40:39;46.57;;;19.63;;
39788;SDS011;25478;42.626;23.320;2023-02-28T01:43:07;46.53;;;20.60;;
39788;SDS011;25478;42.626;23.320;2023-02-28T01:45:44;47.60;;;21.60;;
39788;SDS011;25478;42.626;23.320;2023-02-28T01:48:10;49.30;;;22.07;;
39788;SDS011;25478;42.626;23.320;2023-02-28T01:50:36;57.10;;;23.07;;
39788;SDS011;25478;42.626;23.320;2023-02-28T01:53:07;54.40;;;23.47;;
39788;SDS011;25478;42.626;23.320;2023-02-28T01:55:35;44.53;;;21.17;;
39788;SDS011;25478;42.626;23.320;2023-02-28T01:58:04;53.07;;;25.23;;
39788;SDS011;25478;42.626;23.320;2023-02-28T02:00:32;48.10;;;20.37;;
39788;SDS011;25478;42.626;23.320;2023-02-28T02:03:05;63.37;;;22.90;;
39788;SDS011;25478;42.626;23.320;2023-02-28T02:05:34;49.57;;;20.60;;
39788;SDS011;25478;42.626;23.320;2023-02-28T02:08:03;58.70;;;22.63;;
39788;SDS011;25478;42.626;23.320;2023-02-28T02:18:44;63.60;;;25.23;;
39788;SDS011;25478;42.626;23.320;2023-02-28T02:21:18;64.20;;;25.07;;
39788;SDS011;25478;42.626;23.320;2023-02-28T02:24:03;92.07;;;24.60;;
39788;SDS011;25478;42.626;23.320;2023-02-28T02:27:05;49.43;;;21.57;;
39788;SDS011;25478;42.626;23.320;2023-02-28T02:44:18;72.70;;;21.67;;
39788;SDS011;25478;42.626;23.320;2023-02-28T02:46:58;49.57;;;18.87;;
39788;SDS011;25478;42.626;23.320;2023-02-28T02:49:30;70.13;;;20.83;;
39788;SDS011;25478;42.626;23.320;2023-02-28T02:51:57;46.30;;;18.07;;
39788;SDS011;25478;42.626;23.320;2023-02-28T02:54:29;47.33;;;18.43;;
39788;SDS011;25478;42.626;23.320;2023-02-28T02:56:59;40.93;;;18.20;;
39788;SDS011;25478;42.626;23.320;2023-02-28T02:59:30;39.80;;;16.90;;
39788;SDS011;25478;42.626;23.320;2023-02-28T03:01:59;43.33;;;19.40;;
39788;SDS011;25478;42.626;23.320;2023-02-28T03:04:27;39.87;;;17.57;;
39788;SDS011;25478;42.626;23.320;2023-02-28T03:06:57;32.00;;;16.27;;
39788;SDS011;25478;42.626;23.320;2023-02-28T03:09:24;33.73;;;16.17;;
39788;SDS011;25478;42.626;23.320;2023-02-28T03:11:51;42.07;;;18.50;;
39788;SDS011;25478;42.626;23.320;2023-02-28T03:28:00;65.20;;;23.27;;
39788;SDS011;25478;42.626;23.320;2023-02-28T03:33:34;65.83;;;23.47;;
39788;SDS011;25478;42.626;23.320;2023-02-28T03:36:07;83.07;;;25.07;;
39788;SDS011;25478;42.626;23.320;2023-02-28T03:38:38;61.53;;;23.50;;
39788;SDS011;25478;42.626;23.320;2023-02-28T03:41:17;70.93;;;25.00;;
39788;SDS011;25478;42.626;23.320;2023-02-28T03:43:50;72.53;;;25.47;;
39788;SDS011;25478;42.626;23.320;2023-02-28T03:46:23;156.13;;;27.17;;
39788;SDS011;25478;42.626;23.320;2023-02-28T03:51:43;76.57;;;20.07;;
39788;SDS011;25478;42.626;23.320;2023-02-28T03:54:25;50.90;;;18.53;;
39788;SDS011;25478;42.626;23.320;2023-02-28T03:56:59;46.20;;;17.77;;
39788;SDS011;25478;42.626;23.320;2023-02-28T04:00:04;57.73;;;19.37;;
39788;SDS011;25478;42.626;23.320;2023-02-28T04:02:24;46.72;;;18.20;;
39788;SDS011;25478;42.626;23.320;2023-02-28T04:04:50;126.77;;;19.47;;
39788;SDS011;25478;42.626;23.320;2023-02-28T04:07:16;112.23;;;18.10;;
39788;SDS011;25478;42.626;23.320;2023-02-28T04:09:42;112.20;;;17.60;;
39788;SDS011;25478;42.626;23.320;2023-02-28T04:12:08;41.03;;;15.57;;
39788;SDS011;25478;42.626;23.320;2023-02-28T04:14:34;36.37;;;15.70;;
39788;SDS011;25478;42.626;23.320;2023-02-28T04:16:59;40.83;;;16.13;;
39788;SDS011;25478;42.626;23.320;2023-02-28T04:19:25;58.57;;;18.80;;
39788;SDS011;25478;42.626;23.320;2023-02-28T04:21:50;59.83;;;22.37;;
39788;SDS011;25478;42.626;23.320;2023-02-28T04:24:24;85.77;;;21.43;;
39788;SDS011;25478;42.626;23.320;2023-02-28T04:26:52;183.07;;;25.58;;
39788;SDS011;25478;42.626;23.320;2023-02-28T04:29:21;229.67;;;27.90;;
39788;SDS011;25478;42.626;23.320;2023-02-28T04:31:49;80.53;;;20.93;;
39788;SDS011;25478;42.626;23.320;2023-02-28T04:34:15;214.37;;;26.73;;
39788;SDS011;25478;42.626;23.320;2023-02-28T04:36:41;140.83;;;24.03;;
39788;SDS011;25478;42.626;23.320;2023-02-28T04:39:07;57.00;;;20.50;;
39788;SDS011;25478;42.626;23.320;2023-02-28T04:41:34;61.37;;;20.83;;
39788;SDS011;25478;42.626;23.320;2023-02-28T04:44:00;52.37;;;20.93;;
39788;SDS011;25478;42.626;23.320;2023-02-28T04:46:25;54.00;;;21.10;;
39788;SDS011;25478;42.626;23.320;2023-02-28T04:48:51;94.00;;;21.60;;
39788;SDS011;25478;42.626;23.320;2023-02-28T04:51:17;65.00;;;20.00;;
39788;SDS011;25478;42.626;23.320;2023-02-28T04:53:44;118.70;;;23.07;;
39788;SDS011;25478;42.626;23.320;2023-02-28T04:56:11;129.33;;;23.60;;
39788;SDS011;25478;42.626;23.320;2023-02-28T04:58:38;265.33;;;33.10;;
39788;SDS011;25478;42.626;23.320;2023-02-28T05:01:27;174.07;;;26.50;;
39788;SDS011;25478;42.626;23.320;2023-02-28T05:03:50;62.53;;;24.83;;
39788;SDS011;25478;42.626;23.320;2023-02-28T05:06:17;97.83;;;24.07;;
39788;SDS011;25478;42.626;23.320;2023-02-28T05:08:43;61.93;;;22.33;;
39788;SDS011;25478;42.626;23.320;2023-02-28T05:11:14;82.37;;;23.13;;
39788;SDS011;25478;42.626;23.320;2023-02-28T05:13:43;95.18;;;23.45;;
39788;SDS011;25478;42.626;23.320;2023-02-28T05:16:08;129.00;;;23.40;;
39788;SDS011;25478;42.626;23.320;2023-02-28T05:18:34;64.40;;;21.83;;
39788;SDS011;25478;42.626;23.320;2023-02-28T05:20:59;78.87;;;21.30;;
39788;SDS011;25478;42.626;23.320;2023-02-28T05:23:27;55.50;;;21.33;;
39788;SDS011;25478;42.626;23.320;2023-02-28T05:25:53;58.33;;;21.60;;
39788;SDS011;25478;42.626;23.320;2023-02-28T05:28:19;90.67;;;22.13;;
39788;SDS011;25478;42.626;23.320;2023-02-28T05:30:45;58.53;;;21.17;;
39788;SDS011;25478;42.626;23.320;2023-02-28T05:33:11;76.73;;;21.00;;
39788;SDS011;25478;42.626;23.320;2023-02-28T05:35:40;61.37;;;20.43;;
39788;SDS011;25478;42.626;23.320;2023-02-28T05:38:07;50.63;;;20.90;;
39788;SDS011;25478;42.626;23.320;2023-02-28T05:40:33;52.80;;;19.70;;
39788;SDS011;25478;42.626;23.320;2023-02-28T05:42:59;50.03;;;20.37;;
39788;SDS011;25478;42.626;23.320;2023-02-28T05:45:24;44.07;;;18.80;;
39788;SDS011;25478;42.626;23.320;2023-02-28T05:47:53;45.67;;;19.37;;
39788;SDS011;25478;42.626;23.320;2023-02-28T05:50:19;38.13;;;17.07;;
39788;SDS011;25478;42.626;23.320;2023-02-28T05:52:48;40.00;;;17.47;;
39788;SDS011;25478;42.626;23.320;2023-02-28T05:55:14;39.30;;;16.80;;
39788;SDS011;25478;42.626;23.320;2023-02-28T05:57:40;42.60;;;16.87;;
39788;SDS011;25478;42.626;23.320;2023-02-28T06:00:06;44.97;;;17.63;;
39788;SDS011;25478;42.626;23.320;2023-02-28T06:02:38;38.93;;;16.30;;
39788;SDS011;25478;42.626;23.320;2023-02-28T06:05:05;37.53;;;16.30;;
39788;SDS011;25478;42.626;23.320;2023-02-28T06:07:37;45.67;;;19.43;;
39788;SDS011;25478;42.626;23.320;2023-02-28T06:10:02;116.17;;;22.60;;
39788;SDS011;25478;42.626;23.320;2023-02-28T06:12:28;43.93;;;18.93;;
39788;SDS011;25478;42.626;23.320;2023-02-28T06:14:53;46.00;;;21.23;;
39788;SDS011;25478;42.626;23.320;2023-02-28T06:17:19;48.07;;;20.20;;
39788;SDS011;25478;42.626;23.320;2023-02-28T06:19:44;49.10;;;21.23;;
39788;SDS011;25478;42.626;23.320;2023-02-28T06:22:10;57.00;;;23.20;;
39788;SDS011;25478;42.626;23.320;2023-02-28T06:24:35;51.00;;;22.33;;
39788;SDS011;25478;42.626;23.320;2023-02-28T06:27:01;50.37;;;21.13;;
39788;SDS011;25478;42.626;23.320;2023-02-28T06:29:33;43.73;;;21.60;;
39788;SDS011;25478;42.626;23.320;2023-02-28T06:32:00;43.50;;;20.37;;
39788;SDS011;25478;42.626;23.320;2023-02-28T06:34:25;45.17;;;21.37;;
39788;SDS011;25478;42.626;23.320;2023-02-28T06:36:51;41.97;;;19.00;;
39788;SDS011;25478;42.626;23.320;2023-02-28T06:39:17;44.13;;;19.27;;
39788;SDS011;25478;42.626;23.320;2023-02-28T06:41:43;42.83;;;19.50;;
39788;SDS011;25478;42.626;23.320;2023-02-28T06:44:14;47.17;;;20.10;;
39788;SDS011;25478;42.626;23.320;2023-02-28T06:46:42;45.20;;;20.23;;
39788;SDS011;25478;42.626;23.320;2023-02-28T06:49:09;44.50;;;20.13;;
39788;SDS011;25478;42.626;23.320;2023-02-28T06:51:36;42.57;;;20.07;;
39788;SDS011;25478;42.626;23.320;2023-02-28T06:54:03;47.17;;;22.53;;
39788;SDS011;25478;42.626;23.320;2023-02-28T06:56:29;47.63;;;21.97;;
39788;SDS011;25478;42.626;23.320;2023-02-28T06:58:54;45.77;;;22.77;;
39788;SDS011;25478;42.626;23.320;2023-02-28T07:01:21;47.53;;;23.80;;
39788;SDS011;25478;42.626;23.320;2023-02-28T07:03:49;53.77;;;25.37;;
39788;SDS011;25478;42.626;23.320;2023-02-28T07:06:19;52.00;;;23.30;;
39788;SDS011;25478;42.626;23.320;2023-02-28T07:08:47;58.27;;;25.23;;
39788;SDS011;25478;42.626;23.320;2023-02-28T07:11:14;51.63;;;26.20;;
39788;SDS011;25478;42.626;23.320;2023-02-28T07:13:39;57.03;;;26.17;;
39788;SDS011;25478;42.626;23.320;2023-02-28T07:16:06;53.40;;;25.73;;
39788;SDS011;25478;42.626;23.320;2023-02-28T07:18:33;49.27;;;24.20;;
39788;SDS011;25478;42.626;23.320;2023-02-28T07:21:01;50.87;;;25.47;;
39788;SDS011;25478;42.626;23.320;2023-02-28T07:23:28;53.60;;;25.83;;
39788;SDS011;25478;42.626;23.320;2023-02-28T07:25:53;51.10;;;24.93;;
39788;SDS011;25478;42.626;23.320;2023-02-28T07:28:19;54.70;;;24.80;;
39788;SDS011;25478;42.626;23.320;2023-02-28T07:30:44;56.00;;;24.70;;
39788;SDS011;25478;42.626;23.320;2023-02-28T07:33:10;54.23;;;25.37;;
39788;SDS011;25478;42.626;23.320;2023-02-28T07:35:36;49.83;;;25.43;;
39788;SDS011;25478;42.626;23.320;2023-02-28T07:38:01;54.57;;;25.70;;
39788;SDS011;25478;42.626;23.320;2023-02-28T07:40:28;52.50;;;24.67;;
39788;SDS011;25478;42.626;23.320;2023-02-28T07:42:53;46.30;;;23.63;;
39788;SDS011;25478;42.626;23.320;2023-02-28T07:45:19;48.63;;;24.63;;
39788;SDS011;25478;42.626;23.320;2023-02-28T07:47:45;52.77;;;24.53;;
39788;SDS011;25478;42.626;23.320;2023-02-28T07:50:11;52.03;;;24.67;;
39788;SDS011;25478;42.626;23.320;2023-02-28T07:52:39;50.03;;;24.07;;
39788;SDS011;25478;42.626;23.320;2023-02-28T07:55:05;50.17;;;24.60;;
39788;SDS011;25478;42.626;23.320;2023-02-28T07:57:32;50.93;;;23.33;;
39788;SDS011;25478;42.626;23.320;2023-02-28T07:59:58;56.40;;;26.93;;
39788;SDS011;25478;42.626;23.320;2023-02-28T08:02:23;50.83;;;26.30;;
39788;SDS011;25478;42.626;23.320;2023-02-28T08:04:49;53.67;;;26.13;;
39788;SDS011;25478;42.626;23.320;2023-02-28T08:07:16;59.50;;;27.67;;
39788;SDS011;25478;42.626;23.320;2023-02-28T08:09:42;56.10;;;27.87;;
39788;SDS011;25478;42.626;23.320;2023-02-28T08:12:09;63.37;;;27.70;;
39788;SDS011;25478;42.626;23.320;2023-02-28T08:14:35;67.50;;;30.40;;
39788;SDS011;25478;42.626;23.320;2023-02-28T08:17:01;64.57;;;29.90;;
39788;SDS011;25478;42.626;23.320;2023-02-28T08:19:27;66.40;;;31.10;;
39788;SDS011;25478;42.626;23.320;2023-02-28T08:21:53;66.37;;;31.63;;
39788;SDS011;25478;42.626;23.320;2023-02-28T08:24:19;71.07;;;30.67;;
39788;SDS011;25478;42.626;23.320;2023-02-28T08:26:44;73.70;;;33.20;;
39788;SDS011;25478;42.626;23.320;2023-02-28T08:29:10;69.27;;;33.23;;
39788;SDS011;25478;42.626;23.320;2023-02-28T08:31:35;74.17;;;33.47;;
39788;SDS011;25478;42.626;23.320;2023-02-28T08:34:05;69.93;;;32.10;;
39788;SDS011;25478;42.626;23.320;2023-02-28T08:36:37;73.57;;;32.10;;
39788;SDS011;25478;42.626;23.320;2023-02-28T08:39:03;64.77;;;31.00;;
39788;SDS011;25478;42.626;23.320;2023-02-28T08:41:28;69.10;;;32.20;;
39788;SDS011;25478;42.626;23.320;2023-02-28T08:43:54;80.43;;;35.20;;
39788;SDS011;25478;42.626;23.320;2023-02-28T08:46:20;72.03;;;34.27;;
39788;SDS011;25478;42.626;23.320;2023-02-28T08:48:46;76.10;;;33.00;;
39788;SDS011;25478;42.626;23.320;2023-02-28T08:51:13;70.20;;;32.43;;
39788;SDS011;25478;42.626;23.320;2023-02-28T08:53:41;68.07;;;32.57;;
39788;SDS011;25478;42.626;23.320;2023-02-28T08:56:12;65.10;;;31.63;;
39788;SDS011;25478;42.626;23.320;2023-02-28T08:58:38;57.37;;;30.00;;
39788;SDS011;25478;42.626;23.320;2023-02-28T09:01:15;58.30;;;29.23;;
39788;SDS011;25478;42.626;23.320;2023-02-28T09:03:45;65.77;;;30.77;;
39788;SDS011;25478;42.626;23.320;2023-02-28T09:06:12;58.90;;;26.23;;
39788;SDS011;25478;42.626;23.320;2023-02-28T09:08:39;65.53;;;30.70;;
39788;SDS011;25478;42.626;23.320;2023-02-28T09:11:05;72.47;;;34.97;;
39788;SDS011;25478;42.626;23.320;2023-02-28T09:13:31;74.83;;;33.73;;
39788;SDS011;25478;42.626;23.320;2023-02-28T09:15:58;68.07;;;31.63;;
39788;SDS011;25478;42.626;23.320;2023-02-28T09:18:24;73.53;;;32.30;;
39788;SDS011;25478;42.626;23.320;2023-02-28T09:20:51;66.50;;;30.43;;
39788;SDS011;25478;42.626;23.320;2023-02-28T09:23:17;54.73;;;24.93;;
39788;SDS011;25478;42.626;23.320;2023-02-28T09:25:53;50.10;;;23.60;;
39788;SDS011;25478;42.626;23.320;2023-02-28T09:28:19;50.83;;;23.83;;
39788;SDS011;25478;42.626;23.320;2023-02-28T09:30:47;51.37;;;23.17;;
39788;SDS011;25478;42.626;23.320;2023-02-28T09:33:14;46.07;;;21.80;;
39788;SDS011;25478;42.626;23.320;2023-02-28T09:35:40;37.53;;;16.20;;
39788;SDS011;25478;42.626;23.320;2023-02-28T09:38:06;31.10;;;13.77;;
39788;SDS011;25478;42.626;23.320;2023-02-28T09:40:35;28.07;;;11.63;;
39788;SDS011;25478;42.626;23.320;2023-02-28T09:43:04;28.07;;;12.10;;
39788;SDS011;25478;42.626;23.320;2023-02-28T09:45:37;27.83;;;10.93;;
39788;SDS011;25478;42.626;23.320;2023-02-28T09:48:09;25.43;;;11.00;;
39788;SDS011;25478;42.626;23.320;2023-02-28T09:50:49;26.97;;;11.20;;
39788;SDS011;25478;42.626;23.320;2023-02-28T09:55:57;24.13;;;11.27;;
39788;SDS011;25478;42.626;23.320;2023-02-28T10:00:56;22.13;;;10.70;;
39788;SDS011;25478;42.626;23.320;2023-02-28T10:06:22;23.87;;;9.73;;
39788;SDS011;25478;42.626;23.320;2023-02-28T10:08:58;20.93;;;10.30;;
39788;SDS011;25478;42.626;23.320;2023-02-28T10:11:28;25.07;;;9.67;;
39788;SDS011;25478;42.626;23.320;2023-02-28T10:16:45;25.70;;;9.90;;
39788;SDS011;25478;42.626;23.320;2023-02-28T10:19:20;23.20;;;10.03;;
39788;SDS011;25478;42.626;23.320;2023-02-28T10:24:35;21.03;;;8.90;;
39788;SDS011;25478;42.626;23.320;2023-02-28T10:27:10;23.47;;;9.53;;
39788;SDS011;25478;42.626;23.320;2023-02-28T10:29:40;24.43;;;8.90;;
39788;SDS011;25478;42.626;23.320;2023-02-28T10:32:08;22.60;;;9.57;;
39788;SDS011;25478;42.626;23.320;2023-02-28T10:34:39;22.57;;;10.03;;
39788;SDS011;25478;42.626;23.320;2023-02-28T10:37:04;20.87;;;9.73;;
39788;SDS011;25478;42.626;23.320;2023-02-28T10:39:34;19.93;;;8.60;;
39788;SDS011;25478;42.626;23.320;2023-02-28T10:42:05;17.67;;;8.67;;
39788;SDS011;25478;42.626;23.320;2023-02-28T10:44:45;17.17;;;8.53;;
39788;SDS011;25478;42.626;23.320;2023-02-28T10:47:14;18.67;;;9.37;;
39788;SDS011;25478;42.626;23.320;2023-02-28T10:49:46;17.63;;;8.70;;
39788;SDS011;25478;42.626;23.320;2023-02-28T10:52:14;23.97;;;9.80;;
39788;SDS011;25478;42.626;23.320;2023-02-28T10:55:18;23.57;;;9.27;;
39788;SDS011;25478;42.626;23.320;2023-02-28T10:57:50;21.03;;;9.23;;
39788;SDS011;25478;42.626;23.320;2023-02-28T11:00:21;25.07;;;9.47;;
39788;SDS011;25478;42.626;23.320;2023-02-28T11:02:52;20.37;;;9.27;;
39788;SDS011;25478;42.626;23.320;2023-02-28T11:07:52;24.10;;;9.38;;
39788;SDS011;25478;42.626;23.320;2023-02-28T11:10:19;18.63;;;8.87;;
39788;SDS011;25478;42.626;23.320;2023-02-28T11:12:49;27.10;;;8.77;;
39788;SDS011;25478;42.626;23.320;2023-02-28T11:17:52;21.23;;;9.67;;
39788;SDS011;25478;42.626;23.320;2023-02-28T11:20:21;21.45;;;9.75;;
39788;SDS011;25478;42.626;23.320;2023-02-28T11:22:50;24.80;;;10.20;;
39788;SDS011;25478;42.626;23.320;2023-02-28T11:25:30;27.13;;;11.13;;
39788;SDS011;25478;42.626;23.320;2023-02-28T11:28:02;21.80;;;9.73;;
39788;SDS011;25478;42.626;23.320;2023-02-28T11:33:00;23.73;;;10.53;;
39788;SDS011;25478;42.626;23.320;2023-02-28T11:35:43;24.25;;;11.13;;
39788;SDS011;25478;42.626;23.320;2023-02-28T11:38:09;26.33;;;11.47;;
39788;SDS011;25478;42.626;23.320;2023-02-28T11:46:37;23.60;;;11.63;;
39788;SDS011;25478;42.626;23.320;2023-02-28T11:49:37;25.67;;;11.20;;
39788;SDS011;25478;42.626;23.320;2023-02-28T11:58:50;22.03;;;10.43;;
39788;SDS011;25478;42.626;23.320;2023-02-28T12:06:53;21.43;;;11.10;;
39788;SDS011;25478;42.626;23.320;2023-02-28T12:12:40;28.57;;;12.20;;
39788;SDS011;25478;42.626;23.320;2023-02-28T12:15:48;26.27;;;12.47;;
39788;SDS011;25478;42.626;23.320;2023-02-28T12:18:40;24.03;;;11.83;;
39788;SDS011;25478;42.626;23.320;2023-02-28T12:21:18;26.27;;;12.37;;
39788;SDS011;25478;42.626;23.320;2023-02-28T12:24:34;24.77;;;12.73;;
39788;SDS011;25478;42.626;23.320;2023-02-28T12:26:39;27.17;;;13.47;;
39788;SDS011;25478;42.626;23.320;2023-02-28T12:32:21;27.33;;;13.10;;
39788;SDS011;25478;42.626;23.320;2023-02-28T12:35:14;27.87;;;12.50;;
39788;SDS011;25478;42.626;23.320;2023-02-28T12:37:41;28.23;;;13.20;;
39788;SDS011;25478;42.626;23.320;2023-02-28T12:40:13;29.73;;;13.23;;
39788;SDS011;25478;42.626;23.320;2023-02-28T12:42:55;27.60;;;12.87;;
39788;SDS011;25478;42.626;23.320;2023-02-28T12:45:24;26.80;;;12.57;;
39788;SDS011;25478;42.626;23.320;2023-02-28T12:48:08;34.23;;;12.80;;
39788;SDS011;25478;42.626;23.320;2023-02-28T12:50:40;27.87;;;13.50;;
39788;SDS011;25478;42.626;23.320;2023-02-28T12:53:06;33.47;;;14.40;;
39788;SDS011;25478;42.626;23.320;2023-02-28T12:55:52;31.70;;;13.73;;
39788;SDS011;25478;42.626;23.320;2023-02-28T12:58:33;28.13;;;13.87;;
39788;SDS011;25478;42.626;23.320;2023-02-28T13:06:38;29.17;;;13.23;;
39788;SDS011;25478;42.626;23.320;2023-02-28T13:09:18;32.63;;;13.73;;
39788;SDS011;25478;42.626;23.320;2023-02-28T13:11:48;27.23;;;13.37;;
39788;SDS011;25478;42.626;23.320;2023-02-28T13:14:18;27.40;;;12.87;;
39788;SDS011;25478;42.626;23.320;2023-02-28T13:17:01;27.37;;;12.57;;
39788;SDS011;25478;42.626;23.320;2023-02-28T13:22:20;27.30;;;12.77;;
39788;SDS011;25478;42.626;23.320;2023-02-28T13:29:50;26.40;;;12.10;;
39788;SDS011;25478;42.626;23.320;2023-02-28T13:32:28;27.63;;;12.63;;
39788;SDS011;25478;42.626;23.320;2023-02-28T13:40:26;27.30;;;11.10;;
39788;SDS011;25478;42.626;23.320;2023-02-28T13:53:01;26.80;;;12.30;;
39788;SDS011;25478;42.626;23.320;2023-02-28T13:58:35;20.42;;;9.50;;
39788;SDS011;25478;42.626;23.320;2023-02-28T14:01:27;24.50;;;10.70;;
39788;SDS011;25478;42.626;23.320;2023-02-28T14:06:48;23.45;;;11.32;;
39788;SDS011;25478;42.626;23.320;2023-02-28T14:11:48;26.77;;;11.57;;
39788;SDS011;25478;42.626;23.320;2023-02-28T14:17:08;22.83;;;10.20;;
39788;SDS011;25478;42.626;23.320;2023-02-28T14:19:39;23.27;;;10.50;;
39788;SDS011;25478;42.626;23.320;2023-02-28T14:36:03;22.63;;;9.80;;
39788;SDS011;25478;42.626;23.320;2023-02-28T14:38:31;20.03;;;8.90;;
39788;SDS011;25478;42.626;23.320;2023-02-28T14:41:01;22.00;;;9.23;;
39788;SDS011;25478;42.626;23.320;2023-02-28T14:43:32;25.90;;;9.77;;
39788;SDS011;25478;42.626;23.320;2023-02-28T14:46:01;21.53;;;9.37;;
39788;SDS011;25478;42.626;23.320;2023-02-28T14:48:29;24.07;;;9.33;;
39788;SDS011;25478;42.626;23.320;2023-02-28T14:50:58;23.17;;;9.40;;
39788;SDS011;25478;42.626;23.320;2023-02-28T14:53:27;20.73;;;8.90;;
39788;SDS011;25478;42.626;23.320;2023-02-28T14:55:54;18.83;;;8.37;;
39788;SDS011;25478;42.626;23.320;2023-02-28T15:00:52;18.90;;;9.10;;
39788;SDS011;25478;42.626;23.320;2023-02-28T15:03:40;17.23;;;7.77;;
39788;SDS011;25478;42.626;23.320;2023-02-28T15:06:15;20.00;;;8.13;;
39788;SDS011;25478;42.626;23.320;2023-02-28T15:08:42;19.80;;;7.83;;
39788;SDS011;25478;42.626;23.320;2023-02-28T15:11:13;16.17;;;8.37;;
39788;SDS011;25478;42.626;23.320;2023-02-28T15:13:48;19.90;;;8.23;;
39788;SDS011;25478;42.626;23.320;2023-02-28T15:16:17;22.67;;;8.37;;
39788;SDS011;25478;42.626;23.320;2023-02-28T15:21:34;20.30;;;7.95;;
39788;SDS011;25478;42.626;23.320;2023-02-28T15:24:04;17.83;;;7.63;;
39788;SDS011;25478;42.626;23.320;2023-02-28T15:26:38;22.17;;;8.00;;
39788;SDS011;25478;42.626;23.320;2023-02-28T15:29:13;18.40;;;8.10;;
39788;SDS011;25478;42.626;23.320;2023-02-28T15:32:06;22.50;;;8.90;;
39788;SDS011;25478;42.626;23.320;2023-02-28T15:39:50;20.20;;;8.43;;
39788;SDS011;25478;42.626;23.320;2023-02-28T15:42:21;22.00;;;8.77;;
39788;SDS011;25478;42.626;23.320;2023-02-28T15:44:48;18.63;;;9.10;;
39788;SDS011;25478;42.626;23.320;2023-02-28T15:47:16;19.83;;;7.60;;
39788;SDS011;25478;42.626;23.320;2023-02-28T15:49:45;14.70;;;7.17;;
39788;SDS011;25478;42.626;23.320;2023-02-28T15:52:15;16.57;;;6.77;;
39788;SDS011;25478;42.626;23.320;2023-02-28T15:54:43;22.70;;;10.30;;
39788;SDS011;25478;42.626;23.320;2023-02-28T15:57:18;28.30;;;12.03;;
39788;SDS011;25478;42.626;23.320;2023-02-28T15:59:57;24.27;;;11.47;;
39788;SDS011;25478;42.626;23.320;2023-02-28T16:02:33;21.70;;;12.03;;
39788;SDS011;25478;42.626;23.320;2023-02-28T16:07:33;18.93;;;10.53;;
39788;SDS011;25478;42.626;23.320;2023-02-28T16:10:00;19.67;;;10.97;;
39788;SDS011;25478;42.626;23.320;2023-02-28T16:12:29;23.30;;;11.10;;
39788;SDS011;25478;42.626;23.320;2023-02-28T16:14:59;23.40;;;10.93;;
39788;SDS011;25478;42.626;23.320;2023-02-28T16:17:29;22.40;;;10.50;;
39788;SDS011;25478;42.626;23.320;2023-02-28T16:19:58;24.17;;;11.97;;
39788;SDS011;25478;42.626;23.320;2023-02-28T16:22:24;21.27;;;10.60;;
39788;SDS011;25478;42.626;23.320;2023-02-28T16:24:49;21.27;;;11.30;;
39788;SDS011;25478;42.626;23.320;2023-02-28T16:27:19;20.37;;;10.57;;
39788;SDS011;25478;42.626;23.320;2023-02-28T16:29:50;18.27;;;10.30;;
39788;SDS011;25478;42.626;23.320;2023-02-28T16:32:16;18.37;;;9.73;;
39788;SDS011;25478;42.626;23.320;2023-02-28T16:34:42;21.13;;;10.70;;
39788;SDS011;25478;42.626;23.320;2023-02-28T16:37:16;20.30;;;10.50;;
39788;SDS011;25478;42.626;23.320;2023-02-28T16:39:43;19.77;;;10.88;;
39788;SDS011;25478;42.626;23.320;2023-02-28T16:42:31;23.87;;;10.47;;
39788;SDS011;25478;42.626;23.320;2023-02-28T16:44:56;21.60;;;9.80;;
39788;SDS011;25478;42.626;23.320;2023-02-28T16:47:23;19.63;;;10.10;;
39788;SDS011;25478;42.626;23.320;2023-02-28T16:49:48;17.97;;;9.70;;
39788;SDS011;25478;42.626;23.320;2023-02-28T16:52:14;17.10;;;9.77;;
39788;SDS011;25478;42.626;23.320;2023-02-28T16:54:40;17.37;;;9.83;;
39788;SDS011;25478;42.626;23.320;2023-02-28T16:57:13;20.90;;;10.67;;
39788;SDS011;25478;42.626;23.320;2023-02-28T16:59:44;20.30;;;10.37;;